createdAt,value
2019-04-14T00:02:27.167Z,26.50
2019-04-14T00:05:01.871Z,26.17
2019-04-14T00:07:31.894Z,26.40
2019-04-14T00:10:05.507Z,27.87
2019-04-14T00:12:34.491Z,26.10
2019-04-14T00:15:23.299Z,28.07
2019-04-14T00:17:43.478Z,27.07
2019-04-14T00:20:12.700Z,26.57
2019-04-14T00:22:42.492Z,29.37
2019-04-14T00:25:12.910Z,26.57
2019-04-14T00:27:47.936Z,26.50
2019-04-14T00:30:22.923Z,27.87
2019-04-14T00:32:57.432Z,25.53
2019-04-14T00:35:34.661Z,27.63
2019-04-14T00:38:41.299Z,26.20
2019-04-14T00:41:36.225Z,25.27
2019-04-14T00:44:18.913Z,26.57
2019-04-14T00:47:05.026Z,24.60
2019-04-14T00:49:37.607Z,26.73
2019-04-14T00:52:10.025Z,28.00
2019-04-14T00:54:39.569Z,24.33
2019-04-14T00:57:11.565Z,24.40
2019-04-14T00:59:40.598Z,26.00
2019-04-14T01:02:09.903Z,28.30
2019-04-14T01:04:42.662Z,25.53
2019-04-14T01:07:11.543Z,26.87
2019-04-14T01:09:44.842Z,24.60
2019-04-14T01:12:16.994Z,26.93
2019-04-14T01:14:47.403Z,27.50
2019-04-14T01:17:17.733Z,27.37
2019-04-14T01:19:46.596Z,25.83
2019-04-14T01:22:16.557Z,27.33
2019-04-14T01:24:48.970Z,27.23
2019-04-14T01:27:19.041Z,27.07
2019-04-14T01:29:49.445Z,28.77
2019-04-14T01:32:19.653Z,27.57
2019-04-14T01:34:52.826Z,28.63
2019-04-14T01:37:26.935Z,27.73
2019-04-14T01:39:56.708Z,30.10
2019-04-14T01:42:29.083Z,29.80
2019-04-14T01:44:59.293Z,27.80
2019-04-14T01:47:31.360Z,32.33
2019-04-14T01:50:03.813Z,30.17
2019-04-14T01:53:07.578Z,31.97
2019-04-14T01:55:46.641Z,29.10
2019-04-14T01:58:25.705Z,33.30
2019-04-14T02:01:13.489Z,31.93
2019-04-14T02:03:45.552Z,32.27
2019-04-14T02:06:17.879Z,33.27
2019-04-14T02:08:48.034Z,31.03
2019-04-14T02:11:18.790Z,31.63
2019-04-14T02:13:48.581Z,33.50
2019-04-14T02:16:32.338Z,30.77
2019-04-14T02:18:56.867Z,31.13
2019-04-14T02:21:26.288Z,32.10
2019-04-14T02:23:56.146Z,32.23
2019-04-14T02:26:26.264Z,30.13
2019-04-14T02:28:55.260Z,31.00
2019-04-14T02:31:54.976Z,31.37
2019-04-14T02:35:28.493Z,28.67
2019-04-14T02:36:58.481Z,31.53
2019-04-14T02:44:31.548Z,33.03
2019-04-14T02:47:03.441Z,32.40
2019-04-14T02:52:01.899Z,32.03
2019-04-14T02:54:37.375Z,32.50
2019-04-14T02:57:03.652Z,32.10
2019-04-14T02:59:29.122Z,32.03
2019-04-14T03:04:33.542Z,32.60
2019-04-14T03:07:14.327Z,33.23
2019-04-14T03:12:11.444Z,33.17
2019-04-14T03:14:50.329Z,32.97
2019-04-14T03:17:49.316Z,36.67
2019-04-14T03:20:47.611Z,38.27
2019-04-14T03:25:41.410Z,35.70
2019-04-14T03:28:36.474Z,35.43
2019-04-14T03:31:31.633Z,37.57
2019-04-14T03:34:06.250Z,37.60
2019-04-14T03:36:49.760Z,36.67
2019-04-14T03:38:36.552Z,37.40
2019-04-14T03:43:38.698Z,37.03
2019-04-14T03:46:17.813Z,37.87
2019-04-14T03:53:47.022Z,32.53
2019-04-14T03:56:29.157Z,34.13
2019-04-14T03:58:58.209Z,38.47
2019-04-14T04:01:27.986Z,34.17
2019-04-14T04:03:58.516Z,37.30
2019-04-14T04:06:27.549Z,38.13
2019-04-14T04:08:57.377Z,36.77
2019-04-14T04:11:26.533Z,36.60
2019-04-14T04:13:56.371Z,39.50
2019-04-14T04:16:41.935Z,37.30
2019-04-14T04:19:19.634Z,37.47
2019-04-14T04:22:04.235Z,38.97
2019-04-14T04:24:41.122Z,38.73
2019-04-14T04:27:38.081Z,39.63
2019-04-14T04:30:34.084Z,37.13
2019-04-14T04:33:19.890Z,39.80
2019-04-14T04:35:52.832Z,36.90
2019-04-14T04:38:46.326Z,41.63
2019-04-14T04:41:16.749Z,40.47
2019-04-14T04:43:47.334Z,37.73
2019-04-14T04:46:17.599Z,38.87
2019-04-14T04:48:58.309Z,39.87
2019-04-14T04:51:18.194Z,39.10
2019-04-14T04:53:48.351Z,38.40
2019-04-14T04:56:20.790Z,39.07
2019-04-14T04:58:50.185Z,40.30
2019-04-14T05:01:19.257Z,40.87
2019-04-14T05:03:49.280Z,37.87
2019-04-14T05:06:57.077Z,44.40
2019-04-14T05:09:44.848Z,35.87
2019-04-14T05:12:39.183Z,39.43
2019-04-14T05:15:27.099Z,37.50
2019-04-14T05:17:55.980Z,39.47
2019-04-14T05:20:27.155Z,39.90
2019-04-14T05:22:57.165Z,39.83
2019-04-14T05:25:27.309Z,42.60
2019-04-14T05:27:57.948Z,39.77
2019-04-14T05:30:27.141Z,40.70
2019-04-14T05:32:56.659Z,41.17
2019-04-14T05:35:27.012Z,41.63
2019-04-14T05:37:59.670Z,40.93
2019-04-14T05:40:29.980Z,41.10
2019-04-14T05:43:00.159Z,40.10
2019-04-14T05:45:31.107Z,37.27
2019-04-14T05:48:01.381Z,39.90
2019-04-14T05:50:31.579Z,39.47
2019-04-14T05:53:02.462Z,37.33
2019-04-14T05:55:32.682Z,36.13
2019-04-14T05:58:03.624Z,36.10
2019-04-14T06:00:34.220Z,36.60
2019-04-14T06:03:05.994Z,37.67
2019-04-14T06:05:36.073Z,37.30
2019-04-14T06:08:05.246Z,37.43
2019-04-14T06:10:34.851Z,38.13
2019-04-14T06:13:06.674Z,33.13
2019-04-14T06:15:36.493Z,35.43
2019-04-14T06:18:06.659Z,36.47
2019-04-14T06:20:35.597Z,34.10
2019-04-14T06:23:04.425Z,33.63
2019-04-14T06:25:36.200Z,35.83
2019-04-14T06:28:04.100Z,35.07
2019-04-14T06:30:55.173Z,32.93
2019-04-14T06:33:45.720Z,30.83
2019-04-14T06:36:33.751Z,33.67
2019-04-14T06:39:09.256Z,30.97
2019-04-14T06:41:39.023Z,30.43
2019-04-14T06:44:07.896Z,32.07
2019-04-14T06:46:37.172Z,35.13
2019-04-14T06:49:06.247Z,33.50
2019-04-14T06:51:35.405Z,34.03
2019-04-14T06:54:04.384Z,32.53
2019-04-14T06:56:33.521Z,34.90
2019-04-14T06:59:06.697Z,33.07
2019-04-14T07:01:35.599Z,32.57
2019-04-14T07:04:04.661Z,32.77
2019-04-14T07:06:35.609Z,34.20
2019-04-14T07:09:06.342Z,35.90
2019-04-14T07:11:36.632Z,33.77
2019-04-14T07:14:05.690Z,38.43
2019-04-14T07:16:34.651Z,32.97
2019-04-14T07:19:10.780Z,33.93
2019-04-14T07:21:39.957Z,36.13
2019-04-14T07:24:09.184Z,36.30
2019-04-14T07:26:40.386Z,32.83
2019-04-14T07:29:09.586Z,35.50
2019-04-14T07:31:58.918Z,35.60
2019-04-14T07:34:45.462Z,35.60
2019-04-14T07:37:27.780Z,35.03
2019-04-14T07:40:13.127Z,33.03
2019-04-14T07:42:46.791Z,35.67
2019-04-14T07:45:25.345Z,36.13
2019-04-14T07:48:03.457Z,35.63
2019-04-14T07:50:46.092Z,34.07
2019-04-14T07:53:32.845Z,35.00
2019-04-14T07:56:15.930Z,37.37
2019-04-14T07:58:59.211Z,34.40
2019-04-14T08:01:36.598Z,34.90
2019-04-14T08:04:15.192Z,34.77
2019-04-14T08:06:49.884Z,32.87
2019-04-14T08:09:19.552Z,38.40
2019-04-14T08:11:48.421Z,36.07
2019-04-14T08:14:23.537Z,37.60
2019-04-14T08:16:52.341Z,37.27
2019-04-14T08:19:22.452Z,34.77
2019-04-14T08:21:51.546Z,35.63
2019-04-14T08:24:20.441Z,33.57
2019-04-14T08:26:50.155Z,34.50
2019-04-14T08:29:19.133Z,36.13
2019-04-14T08:31:48.046Z,31.27
2019-04-14T08:34:16.952Z,32.90
2019-04-14T08:36:46.469Z,33.97
2019-04-14T08:39:17.563Z,31.60
2019-04-14T08:42:21.264Z,31.43
2019-04-14T08:44:51.717Z,30.87
2019-04-14T08:47:54.840Z,31.07
2019-04-14T08:50:39.695Z,32.37
2019-04-14T08:53:32.322Z,32.03
2019-04-14T08:56:41.853Z,31.60
2019-04-14T08:59:13.341Z,32.50
2019-04-14T09:02:07.276Z,31.30
2019-04-14T09:04:40.230Z,34.43
2019-04-14T09:07:25.303Z,31.03
2019-04-14T09:10:06.277Z,35.87
2019-04-14T09:12:54.970Z,34.80
2019-04-14T09:15:24.613Z,34.43
2019-04-14T09:17:55.517Z,34.20
2019-04-14T09:20:24.329Z,30.97
2019-04-14T09:23:17.598Z,33.40
2019-04-14T09:25:59.882Z,31.83
2019-04-14T09:28:30.548Z,31.13
2019-04-14T09:30:59.421Z,32.07
2019-04-14T09:33:30.926Z,32.47
2019-04-14T09:35:59.943Z,31.00
2019-04-14T09:38:28.896Z,29.10
2019-04-14T09:40:57.852Z,31.67
2019-04-14T09:43:26.772Z,29.03
2019-04-14T09:45:56.308Z,30.60
2019-04-14T09:48:27.260Z,33.77
2019-04-14T09:51:04.594Z,31.80
2019-04-14T09:53:28.234Z,30.73
2019-04-14T09:55:57.685Z,30.33
2019-04-14T09:58:26.868Z,29.90
2019-04-14T10:00:58.911Z,28.60
2019-04-14T10:03:28.897Z,31.80
2019-04-14T10:05:58.965Z,29.67
2019-04-14T10:08:31.159Z,28.93
2019-04-14T10:11:02.107Z,30.90
2019-04-14T10:13:32.471Z,30.97
2019-04-14T10:16:03.113Z,32.00
2019-04-14T10:18:32.289Z,31.20
2019-04-14T10:21:16.771Z,29.73
2019-04-14T10:23:39.994Z,29.37
2019-04-14T10:26:18.066Z,31.70
2019-04-14T10:28:50.806Z,31.67
2019-04-14T10:32:21.090Z,28.93
2019-04-14T10:49:42.822Z,29.67
2019-04-14T10:52:29.758Z,31.57
2019-04-14T10:55:07.803Z,28.23
2019-04-14T10:57:37.377Z,29.73
2019-04-14T11:00:13.658Z,27.73
2019-04-14T11:02:46.211Z,27.77
2019-04-14T11:05:31.822Z,25.63
2019-04-14T11:08:08.925Z,28.23
2019-04-14T11:10:48.347Z,29.40
2019-04-14T11:13:23.059Z,24.63
2019-04-14T11:16:20.120Z,27.77
2019-04-14T11:18:49.641Z,24.83
2019-04-14T11:21:25.617Z,27.23
2019-04-14T11:25:27.424Z,26.30
2019-04-14T11:27:21.570Z,24.03
2019-04-14T11:29:59.941Z,26.10
2019-04-14T11:33:07.968Z,27.37
2019-04-14T11:35:47.691Z,24.67
2019-04-14T11:38:37.147Z,23.67
2019-04-14T11:48:30.387Z,23.67
2019-04-14T11:58:55.775Z,24.70
2019-04-14T12:01:48.458Z,23.63
2019-04-14T12:05:02.958Z,24.40
2019-04-14T12:08:02.142Z,25.20
2019-04-14T12:14:12.608Z,24.03
2019-04-14T12:16:52.027Z,26.97
2019-04-14T12:19:25.425Z,30.30
2019-04-14T12:22:07.685Z,26.33
2019-04-14T12:24:36.653Z,24.57
2019-04-14T12:27:12.809Z,26.30
2019-04-14T12:29:48.535Z,22.80
2019-04-14T12:32:22.657Z,23.27
2019-04-14T12:34:52.487Z,21.83
2019-04-14T12:37:37.092Z,23.37
2019-04-14T12:40:07.386Z,23.10
2019-04-14T12:43:08.387Z,24.47
2019-04-14T12:45:50.487Z,20.53
2019-04-14T12:48:34.974Z,22.57
2019-04-14T12:51:05.278Z,22.63
2019-04-14T12:53:35.911Z,21.50
2019-04-14T12:56:08.750Z,22.03
2019-04-14T12:58:53.969Z,22.97
2019-04-14T13:01:35.242Z,20.83
2019-04-14T13:04:12.023Z,23.70
2019-04-14T13:06:44.726Z,21.43
2019-04-14T13:09:17.110Z,20.63
2019-04-14T13:11:46.594Z,23.27
2019-04-14T13:14:19.834Z,21.17
2019-04-14T13:16:49.172Z,22.00
2019-04-14T13:19:27.318Z,19.87
2019-04-14T13:22:05.680Z,21.33
2019-04-14T13:24:33.300Z,19.63
2019-04-14T13:27:04.318Z,22.53
2019-04-14T13:29:36.853Z,19.70
2019-04-14T13:32:09.215Z,19.80
2019-04-14T13:34:45.297Z,21.23
2019-04-14T13:37:34.851Z,18.77
2019-04-14T13:41:19.170Z,20.97
2019-04-14T13:43:48.792Z,19.17
2019-04-14T13:46:23.632Z,20.83
2019-04-14T13:48:55.702Z,21.30
2019-04-14T13:51:27.768Z,20.70
2019-04-14T13:54:46.346Z,18.50
2019-04-14T13:57:17.688Z,20.07
2019-04-14T13:59:51.470Z,21.83
2019-04-14T14:02:45.139Z,18.27
2019-04-14T14:05:23.482Z,18.87
2019-04-14T14:08:30.584Z,19.13
2019-04-14T14:12:33.777Z,19.37
2019-04-14T14:15:08.954Z,18.13
2019-04-14T14:18:05.632Z,18.37
2019-04-14T14:21:05.736Z,18.40
2019-04-14T14:24:09.692Z,18.23
2019-04-14T14:26:50.751Z,20.20
2019-04-14T14:29:21.649Z,17.53
2019-04-14T14:31:55.691Z,18.00
2019-04-14T14:34:34.343Z,17.00
2019-04-14T14:37:05.210Z,19.27
2019-04-14T14:39:38.939Z,19.53
2019-04-14T14:42:10.908Z,18.43
2019-04-14T14:44:52.626Z,17.93
2019-04-14T14:47:45.837Z,18.20
2019-04-14T14:50:39.125Z,16.53
2019-04-14T14:53:12.347Z,18.47
2019-04-14T14:56:10.835Z,19.90
2019-04-14T15:01:43.683Z,17.97
2019-04-14T15:04:15.633Z,16.63
2019-04-14T15:06:55.906Z,16.67
2019-04-14T15:09:40.343Z,17.57
2019-04-14T15:12:20.735Z,17.27
2019-04-14T15:14:53.340Z,18.20
2019-04-14T15:17:38.446Z,17.63
2019-04-14T15:23:24.660Z,17.83
2019-04-14T15:25:54.526Z,18.43
2019-04-14T15:28:25.617Z,16.23
2019-04-14T15:30:55.080Z,16.53
2019-04-14T15:33:34.713Z,17.47
2019-04-14T15:36:35.469Z,17.03
2019-04-14T15:39:12.606Z,16.03
2019-04-14T15:41:56.399Z,16.93
2019-04-14T15:44:27.865Z,18.20
2019-04-14T15:47:03.113Z,16.90
2019-04-14T15:49:37.192Z,15.90
2019-04-14T15:52:06.745Z,17.23
2019-04-14T15:54:59.789Z,16.47
2019-04-14T15:58:01.688Z,16.20
2019-04-14T16:01:01.422Z,17.10
2019-04-14T16:14:55.104Z,16.90
2019-04-14T18:03:45.599Z,18.03
2019-04-14T18:07:27.317Z,18.93
2019-04-14T18:12:37.932Z,17.60
2019-04-14T18:17:42.389Z,19.63
2019-04-14T18:23:44.886Z,19.07
2019-04-14T18:30:36.617Z,18.43
2019-04-14T18:37:25.072Z,18.90
2019-04-14T18:41:39.845Z,19.77
2019-04-14T18:55:56.313Z,19.73
2019-04-14T18:59:11.767Z,20.13
2019-04-14T19:01:46.566Z,18.03
2019-04-14T19:08:31.976Z,20.40
2019-04-14T19:44:20.287Z,21.53
2019-04-14T20:21:16.524Z,21.07
2019-04-14T21:34:49.820Z,19.97
2019-04-14T21:39:03.390Z,21.30
2019-04-14T21:41:53.671Z,22.93
2019-04-14T21:44:35.964Z,21.57
2019-04-14T22:01:58.819Z,24.37
2019-04-14T22:03:11.217Z,23.80
2019-04-14T22:06:11.501Z,22.87
2019-04-14T22:09:20.329Z,22.43
2019-04-14T22:23:42.181Z,24.20
2019-04-14T22:27:36.746Z,24.63
2019-04-14T22:42:52.174Z,24.73
2019-04-14T22:46:20.615Z,24.70
2019-04-14T22:50:19.719Z,25.93
2019-04-14T23:16:31.386Z,24.70
2019-04-14T23:22:54.971Z,25.50
2019-04-14T23:26:18.214Z,25.90
2019-04-14T23:29:33.686Z,26.43
2019-04-14T23:33:12.931Z,28.27
2019-04-14T23:37:11.208Z,23.47
2019-04-14T23:38:44.662Z,27.10
2019-04-14T23:42:06.460Z,28.80
2019-04-14T23:44:55.962Z,25.17
2019-04-14T23:48:04.176Z,27.17
2019-04-14T23:53:59.361Z,26.17
2019-04-14T23:59:51.277Z,26.60
